Time;durP1;ratioP1;P1;durP2;ratioP2;P2;SDS_P1;SDS_P2;PMS_P1;PMS_P2;Temp;Humidity;BMP_temperature;BMP_pressure;BME280_temperature;BME280_humidity;BME280_pressure;Samples;Min_cycle;Max_cycle;Signal;HPM_P1;HPM_P2
2022/06/06 00:02:22;;;;;;;;;;;;;;;;;;12533803;28;20435;-82
2022/06/06 00:08:24;;;;;;;;;;;;;;;;;;12533754;28;19940;-82
2022/06/06 00:14:25;;;;;;;;;;;;;;;;;;12551054;28;20285;-82
2022/06/06 00:20:27;;;;;;;;;;;;;;;;;;12533064;28;19913;-82
2022/06/06 00:26:28;;;;;;;;;;;;;;;;;;12533557;28;19923;-82
2022/06/06 00:38:58;;;;;;;;;;;;;;;;;;12534373;28;19909;-82
2022/06/06 00:44:59;;;;;;;;;;;;;;;;;;12532118;28;19916;-82
2022/06/06 00:51:01;;;;;;;;;;;;;;;;;;12531634;28;19916;-82
2022/06/06 00:57:02;;;;;;;;;;;;;;;;;;12531610;28;19909;-82
2022/06/06 01:03:04;;;;;;;;;;;;;;;;;;12531221;28;19916;-82
2022/06/06 01:09:05;;;;;;;;;;;;;;;;;;12531019;28;19916;-82
2022/06/06 01:15:07;;;;;;;;;;;;;;;;;;12530607;28;20364;-82
2022/06/06 01:21:08;;;;;;;;;;;;;;;;;;12547967;28;19916;-82
2022/06/06 01:27:10;;;;;;;;;;;;;;;;;;12530800;28;19923;-82
2022/06/06 01:33:12;;;;;;;;;;;;;;;;;;12547881;28;20144;-82
2022/06/06 01:39:13;;;;;;;;;;;;;;;;;;12547498;28;19909;-82
2022/06/06 01:45:15;;;;;;;;;;;;;;;;;;12547122;28;19915;-82
2022/06/06 01:51:16;;;;;;;;;;;;;;;;;;12546574;28;19920;-82
2022/06/06 01:57:18;;;;;;;;;;;;;;;;;;12512649;28;19908;-82
2022/06/06 02:03:19;;;;;;;;;;;;;;;;;;12528714;28;19919;-82
2022/06/06 02:09:21;;;;;;;;;;;;;;;;;;12527198;28;19917;-82
2022/06/06 02:15:22;;;;;;;;;;;;;;;;;;12527566;28;19915;-82
2022/06/06 02:21:24;;;;;;;;;;;;;;;;;;12527615;28;19908;-82
2022/06/06 02:27:25;;;;;;;;;;;;;;;;;;12546109;28;20273;-82
2022/06/06 02:33:27;;;;;;;;;;;;;;;;;;12527222;28;19916;-82
2022/06/06 02:39:28;;;;;;;;;;;;;;;;;;12526939;28;19919;-82
2022/06/06 02:45:30;;;;;;;;;;;;;;;;;;12526842;28;19909;-82
2022/06/06 02:51:32;;;;;;;;;;;;;;;;;;12510388;28;19916;-82
2022/06/06 02:57:33;;;;;;;;;;;;;;;;;;12527111;28;19908;-82
2022/06/06 03:03:35;;;;;;;;;;;;;;;;;;12509926;28;20267;-82
2022/06/06 03:09:37;;;;;;;;;;;;;;;;;;12543921;28;20270;-82
2022/06/06 03:15:38;;;;;;;;;;;;;;;;;;12526147;28;20373;-82
2022/06/06 03:21:40;;;;;;;;;;;;;;;;;;12529818;28;19915;-82
2022/06/06 03:27:42;;;;;;;;;;;;;;;;;;12536443;28;19917;-82
2022/06/06 03:33:43;;;;;;;;;;;;;;;;;;12535215;28;19920;-82
2022/06/06 03:39:45;;;;;;;;;;;;;;;;;;12534858;28;20380;-82
2022/06/06 03:45:46;;;;;;;;;;;;;;;;;;12535116;28;19912;-82
2022/06/06 03:51:48;;;;;;;;;;;;;;;;;;12534562;28;19916;-82
2022/06/06 03:57:49;;;;;;;;;;;;;;;;;;12535066;28;20261;-82
2022/06/06 04:03:51;;;;;;;;;;;;;;;;;;12534048;28;19913;-82
2022/06/06 04:09:52;;;;;;;;;;;;;;;;;;12533734;28;19926;-82
2022/06/06 04:15:54;;;;;;;;;;;;;;;;;;12533264;28;19916;-82
2022/06/06 04:21:56;;;;;;;;;;;;;;;;;;12516718;28;19908;-82
2022/06/06 04:27:57;;;;;;;;;;;;;;;;;;12551155;28;19924;-82
2022/06/06 04:33:59;;;;;;;;;;;;;;;;;;12549606;28;19912;-82
2022/06/06 04:40:00;;;;;;;;;;;;;;;;;;12550820;28;19916;-82
2022/06/06 04:46:02;;;;;;;;;;;;;;;;;;12516263;28;19916;-82
2022/06/06 04:52:03;;;;;;;;;;;;;;;;;;12531542;28;19924;-82
2022/06/06 04:58:06;;;;;;;;;;;;;;;;;;12532406;28;19908;-82
2022/06/06 05:04:07;;;;;;;;;;;;;;;;;;12530870;28;19912;-82
2022/06/06 05:10:09;;;;;;;;;;;;;;;;;;12515653;28;20376;-81
2022/06/06 05:16:10;;;;;;;;;;;;;;;;;;12551728;28;19915;-83
2022/06/06 05:22:12;;;;;;;;;;;;;;;;;;12548052;28;19983;-82
2022/06/06 05:28:13;;;;;;;;;;;;;;;;;;12530901;28;19923;-82
2022/06/06 05:34:15;;;;;;;;;;;;;;;;;;12529611;28;19912;-81
2022/06/06 05:40:16;;;;;;;;;;;;;;;;;;12500889;28;20693;-86
2022/06/06 05:46:18;;;;;;;;;;;;;;;;;;12542777;28;19916;-86
2022/06/06 05:52:19;;;;;;;;;;;;;;;;;;12535416;28;19917;-86
2022/06/06 05:58:20;;;;;;;;;;;;;;;;;;12541405;28;19939;-84
2022/06/06 06:04:22;;;;;;;;;;;;;;;;;;12528769;28;19932;-87
2022/06/06 06:10:24;;;;;;;;;;;;;;;;;;12523941;28;19921;-85
2022/06/06 06:16:25;;;;;;;;;;;;;;;;;;12537987;28;19909;-86
2022/06/06 06:22:27;;;;;;;;;;;;;;;;;;12493406;28;19912;-85
2022/06/06 06:28:28;;;;;;;;;;;;;;;;;;12525799;28;19924;-87
2022/06/06 06:34:30;;;;;;;;;;;;;;;;;;12518366;28;19935;-87
2022/06/06 06:40:31;;;;;;;;;;;;;;;;;;12520484;28;19916;-87
2022/06/06 06:46:33;;;;;;;;;;;;;;;;;;12520893;28;19909;-83
2022/06/06 06:52:34;;;;;;;;;;;;;;;;;;12536224;28;19935;-84
2022/06/06 06:58:36;;;;;;;;;;;;;;;;;;12542487;28;19909;-84
2022/06/06 07:10:58;;;;;;;;;;;;;;;;;;12545636;28;20404;-83
2022/06/06 07:16:59;;;;;;;;;;;;;;;;;;12531888;28;19916;-81
2022/06/06 07:23:05;;;;;;;;;;;;;;;;;;12523403;28;19925;-81
2022/06/06 07:29:06;;;;;;;;;;;;;;;;;;12535229;28;19920;-82
2022/06/06 07:35:08;;;;;;;;;;;;;;;;;;12534007;28;19942;-83
2022/06/06 07:41:10;;;;;;;;;;;;;;;;;;12508643;28;20376;-83
2022/06/06 07:47:12;;;;;;;;;;;;;;;;;;12527953;28;19916;-83
2022/06/06 07:53:13;;;;;;;;;;;;;;;;;;12546394;28;19927;-83
2022/06/06 07:59:15;;;;;;;;;;;;;;;;;;12543386;28;20289;-82
2022/06/06 08:05:18;;;;;;;;;;;;;;;;;;12527070;28;19940;-83
2022/06/06 08:11:20;;;;;;;;;;;;;;;;;;12534165;28;19924;-85
2022/06/06 08:17:22;;;;;;;;;;;;;;;;;;12540389;28;19916;-84
2022/06/06 08:23:23;;;;;;;;;;;;;;;;;;12541773;28;19916;-87
2022/06/06 08:29:25;;;;;;;;;;;;;;;;;;12511153;28;19917;-86
2022/06/06 08:35:27;;;;;;;;;;;;;;;;;;12542010;28;19919;-87
2022/06/06 08:41:32;;;;;;;;;;;;;;;;;;12509905;28;19916;-88
2022/06/06 08:47:42;;;;;;;;;;;;;;;;;;12505402;28;19916;-84
2022/06/06 08:53:44;;;;;;;;;;;;;;;;;;12541683;28;19909;-83
2022/06/06 08:59:46;;;;;;;;;;;;;;;;;;12539274;28;19908;-87
2022/06/06 09:05:48;;;;;;;;;;;;;;;;;;12517849;28;19916;-85
2022/06/06 09:11:49;;;;;;;;;;;;;;;;;;12535024;28;19925;-84
2022/06/06 09:17:51;;;;;;;;;;;;;;;;;;12529874;28;19935;-81
2022/06/06 09:23:52;;;;;;;;;;;;;;;;;;12540367;28;19935;-83
2022/06/06 09:29:54;;;;;;;;;;;;;;;;;;12520473;28;19924;-85
2022/06/06 09:35:56;;;;;;;;;;;;;;;;;;12524441;28;19913;-84
2022/06/06 09:41:57;;;;;;;;;;;;;;;;;;12516120;28;19917;-83
2022/06/06 09:47:59;;;;;;;;;;;;;;;;;;12518505;28;19935;-84
2022/06/06 10:00:21;;;;;;;;;;;;;;;;;;12536598;28;20448;-83
2022/06/06 10:06:48;;;;;;;;;;;;;;;;;;12515941;28;19920;-84
2022/06/06 10:12:50;;;;;;;;;;;;;;;;;;12544001;28;19916;-84
2022/06/06 10:18:51;;;;;;;;;;;;;;;;;;12509895;28;20392;-84
2022/06/06 10:24:53;;;;;;;;;;;;;;;;;;12532298;28;19925;-84
2022/06/06 10:30:54;;;;;;;;;;;;;;;;;;12533210;28;19916;-83
2022/06/06 10:37:06;;;;;;;;;;;;;;;;;;12510533;28;20388;-84
2022/06/06 10:43:08;;;;;;;;;;;;;;;;;;12512870;28;20384;-83
2022/06/06 10:49:10;;;;;;;;;;;;;;;;;;12512491;28;20300;-85
2022/06/06 10:55:11;;;;;;;;;;;;;;;;;;12525480;28;19919;-86
2022/06/06 11:01:13;;;;;;;;;;;;;;;;;;12535597;28;19957;-84
2022/06/06 11:07:14;;;;;;;;;;;;;;;;;;12517991;28;19913;-85
2022/06/06 11:13:16;;;;;;;;;;;;;;;;;;12515250;28;20003;-84
2022/06/06 11:19:17;;;;;;;;;;;;;;;;;;12526015;28;19908;-82
2022/06/06 11:25:19;;;;;;;;;;;;;;;;;;12526360;28;19924;-80
2022/06/06 11:31:20;;;;;;;;;;;;;;;;;;12525198;28;19932;-84
2022/06/06 11:37:23;;;;;;;;;;;;;;;;;;12514366;28;20016;-83
2022/06/06 11:43:27;;;;;;;;;;;;;;;;;;12541118;28;19931;-85
2022/06/06 11:49:37;;;;;;;;;;;;;;;;;;12544616;28;19916;-84
2022/06/06 11:55:38;;;;;;;;;;;;;;;;;;12530991;28;19908;-83
2022/06/06 12:01:40;;;;;;;;;;;;;;;;;;12539255;28;19912;-83
2022/06/06 12:07:42;;;;;;;;;;;;;;;;;;12522513;28;19913;-81
2022/06/06 12:13:44;;;;;;;;;;;;;;;;;;12519795;28;19909;-81
2022/06/06 12:19:46;;;;;;;;;;;;;;;;;;12541560;28;19909;-84
2022/06/06 12:25:48;;;;;;;;;;;;;;;;;;12529741;28;19928;-85
2022/06/06 12:31:50;;;;;;;;;;;;;;;;;;12520967;28;19921;-86
2022/06/06 12:37:51;;;;;;;;;;;;;;;;;;12521568;28;20381;-85
2022/06/06 12:43:53;;;;;;;;;;;;;;;;;;12528557;28;19917;-85
2022/06/06 12:49:55;;;;;;;;;;;;;;;;;;12519613;28;19928;-85
2022/06/06 12:56:39;;;;;;;;;;;;;;;;;;12532561;28;19916;-85
2022/06/06 13:02:22;;;;;;;;;;;;;;;;;;12514931;28;19920;-82
2022/06/06 13:08:24;;;;;;;;;;;;;;;;;;12517577;28;19917;-85
2022/06/06 13:14:25;;;;;;;;;;;;;;;;;;12526913;28;19909;-84
2022/06/06 13:20:28;;;;;;;;;;;;;;;;;;12515964;28;19913;-86
2022/06/06 13:26:31;;;;;;;;;;;;;;;;;;12502146;28;19920;-84
2022/06/06 13:32:33;;;;;;;;;;;;;;;;;;12530484;28;19925;-85
2022/06/06 13:38:35;;;;;;;;;;;;;;;;;;12507776;28;19909;-85
2022/06/06 13:44:36;;;;;;;;;;;;;;;;;;12531361;28;20384;-85
2022/06/06 13:50:38;;;;;;;;;;;;;;;;;;12511082;28;19921;-85
2022/06/06 13:56:40;;;;;;;;;;;;;;;;;;12540566;28;19908;-84
2022/06/06 14:02:41;;;;;;;;;;;;;;;;;;12536796;28;19917;-84
2022/06/06 14:08:43;;;;;;;;;;;;;;;;;;12543722;28;19935;-84
2022/06/06 14:14:44;;;;;;;;;;;;;;;;;;12527539;28;19909;-84
2022/06/06 14:20:46;;;;;;;;;;;;;;;;;;12544127;28;19908;-85
2022/06/06 14:26:47;;;;;;;;;;;;;;;;;;12545095;28;19916;-84
2022/06/06 14:32:49;;;;;;;;;;;;;;;;;;12545233;28;20324;-85
2022/06/06 14:38:50;;;;;;;;;;;;;;;;;;12543757;28;19909;-84
2022/06/06 14:44:52;;;;;;;;;;;;;;;;;;12544834;28;20377;-84
2022/06/06 14:50:53;;;;;;;;;;;;;;;;;;12543169;28;19916;-84
2022/06/06 14:56:55;;;;;;;;;;;;;;;;;;12544951;28;20361;-84
2022/06/06 15:02:56;;;;;;;;;;;;;;;;;;12542906;28;20288;-84
2022/06/06 15:08:58;;;;;;;;;;;;;;;;;;12544285;28;19921;-84
2022/06/06 15:15:00;;;;;;;;;;;;;;;;;;12543605;28;20362;-84
2022/06/06 15:21:01;;;;;;;;;;;;;;;;;;12552908;28;19931;-83
2022/06/06 15:27:03;;;;;;;;;;;;;;;;;;12554003;28;19916;-84
2022/06/06 15:33:04;;;;;;;;;;;;;;;;;;12552581;28;19921;-83
2022/06/06 15:39:06;;;;;;;;;;;;;;;;;;12552776;28;19908;-84
2022/06/06 15:45:09;;;;;;;;;;;;;;;;;;12553151;28;19916;-84
2022/06/06 15:51:11;;;;;;;;;;;;;;;;;;12535182;28;19920;-84
2022/06/06 15:57:12;;;;;;;;;;;;;;;;;;12551836;28;19909;-84
2022/06/06 16:03:14;;;;;;;;;;;;;;;;;;12550905;28;19936;-84
2022/06/06 16:09:16;;;;;;;;;;;;;;;;;;12552288;28;19923;-83
2022/06/06 16:15:18;;;;;;;;;;;;;;;;;;12551338;28;19909;-83
2022/06/06 16:21:19;;;;;;;;;;;;;;;;;;12550653;28;20301;-84
2022/06/06 16:27:21;;;;;;;;;;;;;;;;;;12549559;28;19917;-84
2022/06/06 16:33:23;;;;;;;;;;;;;;;;;;12551882;28;19921;-84
2022/06/06 16:39:24;;;;;;;;;;;;;;;;;;12551030;28;20388;-84
2022/06/06 16:51:46;;;;;;;;;;;;;;;;;;12549864;28;19923;-84
2022/06/06 16:57:47;;;;;;;;;;;;;;;;;;12550524;28;20361;-84
2022/06/06 17:03:50;;;;;;;;;;;;;;;;;;12548644;28;19923;-84
2022/06/06 17:09:51;;;;;;;;;;;;;;;;;;12549852;28;19916;-83
2022/06/06 17:15:53;;;;;;;;;;;;;;;;;;12549250;28;19915;-84
2022/06/06 17:21:54;;;;;;;;;;;;;;;;;;12547847;28;20293;-83
2022/06/06 17:27:56;;;;;;;;;;;;;;;;;;12549462;28;19924;-84
2022/06/06 17:34:03;;;;;;;;;;;;;;;;;;12530905;28;19927;-84
2022/06/06 17:40:05;;;;;;;;;;;;;;;;;;12546307;28;19912;-83
2022/06/06 17:46:07;;;;;;;;;;;;;;;;;;12546425;28;19908;-84
2022/06/06 17:52:08;;;;;;;;;;;;;;;;;;12546103;28;19928;-84
2022/06/06 17:58:10;;;;;;;;;;;;;;;;;;12547778;28;19916;-85
2022/06/06 18:04:11;;;;;;;;;;;;;;;;;;12546451;28;19913;-84
2022/06/06 18:10:13;;;;;;;;;;;;;;;;;;12546685;28;19923;-84
2022/06/06 18:16:17;;;;;;;;;;;;;;;;;;12530444;28;19909;-84
2022/06/06 18:22:18;;;;;;;;;;;;;;;;;;12545812;28;20018;-82
2022/06/06 18:28:20;;;;;;;;;;;;;;;;;;12545046;28;19916;-81
2022/06/06 18:34:21;;;;;;;;;;;;;;;;;;12544821;28;19913;-81
2022/06/06 18:40:23;;;;;;;;;;;;;;;;;;12528254;28;20369;-81
2022/06/06 18:46:25;;;;;;;;;;;;;;;;;;12544643;28;20273;-81
2022/06/06 18:52:27;;;;;;;;;;;;;;;;;;12545155;28;19987;-82
2022/06/06 18:58:29;;;;;;;;;;;;;;;;;;12544782;28;20459;-82
2022/06/06 19:04:30;;;;;;;;;;;;;;;;;;12527497;28;20408;-82
2022/06/06 19:10:32;;;;;;;;;;;;;;;;;;12544038;28;19917;-82
2022/06/06 19:16:33;;;;;;;;;;;;;;;;;;12543808;28;19908;-81
2022/06/06 19:22:35;;;;;;;;;;;;;;;;;;12544538;28;19909;-82
2022/06/06 19:28:37;;;;;;;;;;;;;;;;;;12545651;28;19919;-81
2022/06/06 19:34:38;;;;;;;;;;;;;;;;;;12544072;28;19912;-81
2022/06/06 19:40:39;;;;;;;;;;;;;;;;;;12543066;28;19909;-81
2022/06/06 19:46:41;;;;;;;;;;;;;;;;;;12542465;28;19909;-82
2022/06/06 19:52:43;;;;;;;;;;;;;;;;;;12542099;28;19917;-81
2022/06/06 19:58:44;;;;;;;;;;;;;;;;;;12543283;28;19908;-82
2022/06/06 20:04:46;;;;;;;;;;;;;;;;;;12547260;28;19913;-80
2022/06/06 20:10:50;;;;;;;;;;;;;;;;;;12552231;28;19924;-82
2022/06/06 20:16:52;;;;;;;;;;;;;;;;;;12551862;28;19908;-81
2022/06/06 20:22:53;;;;;;;;;;;;;;;;;;12550150;28;19917;-81
2022/06/06 20:28:55;;;;;;;;;;;;;;;;;;12552336;28;19917;-82
2022/06/06 20:34:56;;;;;;;;;;;;;;;;;;12549829;28;19912;-82
2022/06/06 20:40:58;;;;;;;;;;;;;;;;;;12549654;28;19909;-81
2022/06/06 20:46:59;;;;;;;;;;;;;;;;;;12549161;28;19915;-81
2022/06/06 20:53:01;;;;;;;;;;;;;;;;;;12550458;28;19916;-81
2022/06/06 20:59:03;;;;;;;;;;;;;;;;;;12549269;28;19915;-81
2022/06/06 21:05:05;;;;;;;;;;;;;;;;;;12549512;28;19936;-81
2022/06/06 21:11:06;;;;;;;;;;;;;;;;;;12547978;28;19924;-81
2022/06/06 21:17:08;;;;;;;;;;;;;;;;;;12547244;28;20388;-81
2022/06/06 21:23:09;;;;;;;;;;;;;;;;;;12547502;28;19920;-81
2022/06/06 21:29:11;;;;;;;;;;;;;;;;;;12549527;28;19943;-81
2022/06/06 21:35:13;;;;;;;;;;;;;;;;;;12530437;28;19919;-80
2022/06/06 21:41:15;;;;;;;;;;;;;;;;;;12546557;28;19916;-81
2022/06/06 21:47:17;;;;;;;;;;;;;;;;;;12546985;28;19975;-81
2022/06/06 21:53:19;;;;;;;;;;;;;;;;;;12546100;28;19920;-81
2022/06/06 21:59:20;;;;;;;;;;;;;;;;;;12546436;28;19908;-81
2022/06/06 22:05:22;;;;;;;;;;;;;;;;;;12545809;28;19920;-81
2022/06/06 22:11:24;;;;;;;;;;;;;;;;;;12545421;28;19920;-81
2022/06/06 22:17:25;;;;;;;;;;;;;;;;;;12546290;28;19915;-81
2022/06/06 22:23:27;;;;;;;;;;;;;;;;;;12528138;28;20366;-81
2022/06/06 22:29:28;;;;;;;;;;;;;;;;;;12545976;28;19917;-81
2022/06/06 22:35:30;;;;;;;;;;;;;;;;;;12544389;28;19913;-81
2022/06/06 22:41:31;;;;;;;;;;;;;;;;;;12543817;28;19916;-82
2022/06/06 22:47:33;;;;;;;;;;;;;;;;;;12543589;28;19928;-81
2022/06/06 22:53:34;;;;;;;;;;;;;;;;;;12544178;28;19917;-82
2022/06/06 22:59:36;;;;;;;;;;;;;;;;;;12548675;28;19928;-81
2022/06/06 23:05:38;;;;;;;;;;;;;;;;;;12579752;28;20396;-81
2022/06/06 23:11:40;;;;;;;;;;;;;;;;;;12585634;28;19927;-81
2022/06/06 23:17:42;;;;;;;;;;;;;;;;;;12586028;28;19912;-81
2022/06/06 23:23:44;;;;;;;;;;;;;;;;;;12586375;28;19917;-81
2022/06/06 23:29:45;;;;;;;;;;;;;;;;;;12585716;28;19917;-81
2022/06/06 23:35:47;;;;;;;;;;;;;;;;;;12549132;28;19920;-81
2022/06/06 23:41:48;;;;;;;;;;;;;;;;;;12551695;28;19912;-82
2022/06/06 23:47:50;;;;;;;;;;;;;;;;;;12553717;28;19912;-82
2022/06/06 23:53:51;;;;;;;;;;;;;;;;;;12551974;28;19928;-82
2022/06/06 23:59:53;;;;;;;;;;;;;;;;;;12554515;28;20474;-81
